Altus Air Force Base Altus US
ICAO: KLTS
IATA: LTS
Category: Large
Scheduled Services: No

Elevation: 1382 ft
TransAlt. 18000 ft.

Airport Communications:
APP:125.1
ATIS:27.35
CLNC DEL:120.65
DEP:125.1
GND:121.85
PMSV METRO:23.98
COMD POST:31.1
PTD:37.22
TWR:119.65

KLTS Zoom In..

Runways:

(A) RW 17L length 9001 ft width 150 ft
ILS 110.55 / hdg 172

(B) RW 17R length 13440 ft width 150 ft
ILS 111.30 / hdg 172

(C) RW 35L length 13440 ft width 150 ft
ILS 110.30 / hdg 352

(D) RW 35R length 9001 ft width 150 ft
ILS 110.55 / hdg 352

Location; KLTS
Day. 21 / Time. 19.56 Zulu
* Altimeter: 30.04
* Temperature: 26° c. 78.8°f.
* Wind from: 070° Speed 03 kn.
Dewpoint: 16° c.
Visibility: 9 Statute Miles.
Clouds: Clear (automated report).

KLTS 211956Z AUTO 07003KT 9SM CLR 26/16 A3004 RMK AO2 SLP162 T02630159 $


Wind From 070°
Speed 03 kn.

 
 
jpsmedia.com for Web Design SOUNDCLOUD worldairports.se 2018   terms of use